sensor_id;sensor_type;location;lat;lon;timestamp;P1;durP1;ratioP1;P2;durP2;ratioP2
52590;SDS011;38483;42.620;25.394;2024-03-06T00:00:12;5.03;;;4.03;;
52590;SDS011;38483;42.620;25.394;2024-03-06T00:02:40;7.13;;;4.47;;
52590;SDS011;38483;42.620;25.394;2024-03-06T00:05:07;6.53;;;4.10;;
52590;SDS011;38483;42.620;25.394;2024-03-06T00:07:35;6.93;;;4.33;;
52590;SDS011;38483;42.620;25.394;2024-03-06T00:10:03;5.83;;;4.50;;
52590;SDS011;38483;42.620;25.394;2024-03-06T00:12:32;7.30;;;4.60;;
52590;SDS011;38483;42.620;25.394;2024-03-06T00:15:00;9.20;;;5.20;;
52590;SDS011;38483;42.620;25.394;2024-03-06T00:17:30;5.77;;;4.30;;
52590;SDS011;38483;42.620;25.394;2024-03-06T00:20:53;6.17;;;4.40;;
52590;SDS011;38483;42.620;25.394;2024-03-06T00:24:15;5.03;;;3.70;;
52590;SDS011;38483;42.620;25.394;2024-03-06T00:27:35;7.33;;;4.10;;
52590;SDS011;38483;42.620;25.394;2024-03-06T00:30:56;3.63;;;2.57;;
52590;SDS011;38483;42.620;25.394;2024-03-06T00:34:16;4.27;;;2.50;;
52590;SDS011;38483;42.620;25.394;2024-03-06T00:37:37;4.90;;;2.80;;
52590;SDS011;38483;42.620;25.394;2024-03-06T00:40:57;4.33;;;2.83;;
52590;SDS011;38483;42.620;25.394;2024-03-06T00:44:18;4.00;;;3.03;;
52590;SDS011;38483;42.620;25.394;2024-03-06T00:47:39;3.63;;;2.70;;
52590;SDS011;38483;42.620;25.394;2024-03-06T00:51:02;4.13;;;3.33;;
52590;SDS011;38483;42.620;25.394;2024-03-06T00:54:23;6.83;;;4.37;;
52590;SDS011;38483;42.620;25.394;2024-03-06T00:57:43;4.40;;;3.57;;
52590;SDS011;38483;42.620;25.394;2024-03-06T01:01:04;5.57;;;3.57;;
52590;SDS011;38483;42.620;25.394;2024-03-06T01:04:25;5.27;;;3.57;;
52590;SDS011;38483;42.620;25.394;2024-03-06T01:07:45;4.50;;;3.90;;
52590;SDS011;38483;42.620;25.394;2024-03-06T01:11:06;7.57;;;4.20;;
52590;SDS011;38483;42.620;25.394;2024-03-06T01:14:30;7.13;;;3.97;;
52590;SDS011;38483;42.620;25.394;2024-03-06T01:17:51;6.30;;;4.33;;
52590;SDS011;38483;42.620;25.394;2024-03-06T01:21:11;6.90;;;4.43;;
52590;SDS011;38483;42.620;25.394;2024-03-06T01:24:32;6.87;;;4.50;;
52590;SDS011;38483;42.620;25.394;2024-03-06T01:27:53;6.93;;;4.17;;
52590;SDS011;38483;42.620;25.394;2024-03-06T01:31:14;7.37;;;4.23;;
52590;SDS011;38483;42.620;25.394;2024-03-06T01:34:34;7.43;;;5.10;;
52590;SDS011;38483;42.620;25.394;2024-03-06T01:37:01;7.00;;;4.90;;
52590;SDS011;38483;42.620;25.394;2024-03-06T01:39:28;6.33;;;4.97;;
52590;SDS011;38483;42.620;25.394;2024-03-06T01:41:55;9.13;;;4.93;;
52590;SDS011;38483;42.620;25.394;2024-03-06T01:44:22;9.27;;;5.43;;
52590;SDS011;38483;42.620;25.394;2024-03-06T01:46:49;6.90;;;4.90;;
52590;SDS011;38483;42.620;25.394;2024-03-06T01:49:16;8.57;;;5.13;;
52590;SDS011;38483;42.620;25.394;2024-03-06T01:51:55;7.03;;;4.73;;
52590;SDS011;38483;42.620;25.394;2024-03-06T01:54:24;8.43;;;5.27;;
52590;SDS011;38483;42.620;25.394;2024-03-06T01:56:51;7.07;;;5.00;;
52590;SDS011;38483;42.620;25.394;2024-03-06T01:59:20;7.33;;;5.50;;
52590;SDS011;38483;42.620;25.394;2024-03-06T02:02:02;9.17;;;5.40;;
52590;SDS011;38483;42.620;25.394;2024-03-06T02:04:31;8.20;;;4.90;;
52590;SDS011;38483;42.620;25.394;2024-03-06T02:06:58;8.53;;;5.33;;
52590;SDS011;38483;42.620;25.394;2024-03-06T02:09:26;8.97;;;5.80;;
52590;SDS011;38483;42.620;25.394;2024-03-06T02:11:53;6.93;;;4.90;;
52590;SDS011;38483;42.620;25.394;2024-03-06T02:14:21;8.07;;;5.77;;
52590;SDS011;38483;42.620;25.394;2024-03-06T02:16:48;7.33;;;5.20;;
52590;SDS011;38483;42.620;25.394;2024-03-06T02:19:42;8.40;;;6.03;;
52590;SDS011;38483;42.620;25.394;2024-03-06T02:22:10;8.97;;;5.47;;
52590;SDS011;38483;42.620;25.394;2024-03-06T02:24:44;8.53;;;5.00;;
52590;SDS011;38483;42.620;25.394;2024-03-06T02:27:12;9.30;;;6.10;;
52590;SDS011;38483;42.620;25.394;2024-03-06T02:29:39;8.37;;;5.63;;
52590;SDS011;38483;42.620;25.394;2024-03-06T02:32:06;7.83;;;5.20;;
52590;SDS011;38483;42.620;25.394;2024-03-06T02:34:34;7.60;;;4.83;;
52590;SDS011;38483;42.620;25.394;2024-03-06T02:37:01;7.03;;;4.90;;
52590;SDS011;38483;42.620;25.394;2024-03-06T02:39:28;8.77;;;5.13;;
52590;SDS011;38483;42.620;25.394;2024-03-06T02:41:55;8.97;;;5.67;;
52590;SDS011;38483;42.620;25.394;2024-03-06T02:44:22;7.40;;;5.17;;
52590;SDS011;38483;42.620;25.394;2024-03-06T02:46:50;6.40;;;4.87;;
52590;SDS011;38483;42.620;25.394;2024-03-06T02:49:17;7.80;;;4.97;;
52590;SDS011;38483;42.620;25.394;2024-03-06T02:51:45;7.43;;;5.70;;
52590;SDS011;38483;42.620;25.394;2024-03-06T02:54:12;9.67;;;6.20;;
52590;SDS011;38483;42.620;25.394;2024-03-06T02:56:40;10.77;;;6.80;;
52590;SDS011;38483;42.620;25.394;2024-03-06T02:59:07;9.73;;;7.23;;
52590;SDS011;38483;42.620;25.394;2024-03-06T03:01:34;8.17;;;5.80;;
52590;SDS011;38483;42.620;25.394;2024-03-06T03:04:01;7.80;;;5.77;;
52590;SDS011;38483;42.620;25.394;2024-03-06T03:06:28;8.60;;;6.03;;
52590;SDS011;38483;42.620;25.394;2024-03-06T03:08:56;8.57;;;6.10;;
52590;SDS011;38483;42.620;25.394;2024-03-06T03:11:23;7.87;;;5.30;;
52590;SDS011;38483;42.620;25.394;2024-03-06T03:13:50;8.80;;;5.87;;
52590;SDS011;38483;42.620;25.394;2024-03-06T03:16:20;7.80;;;5.47;;
52590;SDS011;38483;42.620;25.394;2024-03-06T03:18:47;7.93;;;5.23;;
52590;SDS011;38483;42.620;25.394;2024-03-06T03:21:15;6.97;;;4.87;;
52590;SDS011;38483;42.620;25.394;2024-03-06T03:23:42;7.43;;;5.23;;
52590;SDS011;38483;42.620;25.394;2024-03-06T03:26:09;8.60;;;5.73;;
52590;SDS011;38483;42.620;25.394;2024-03-06T03:28:40;8.00;;;5.63;;
52590;SDS011;38483;42.620;25.394;2024-03-06T03:31:08;9.57;;;5.70;;
52590;SDS011;38483;42.620;25.394;2024-03-06T03:33:39;9.67;;;6.27;;
52590;SDS011;38483;42.620;25.394;2024-03-06T03:36:07;9.27;;;5.73;;
52590;SDS011;38483;42.620;25.394;2024-03-06T03:38:35;8.93;;;5.93;;
52590;SDS011;38483;42.620;25.394;2024-03-06T03:41:07;9.97;;;6.33;;
52590;SDS011;38483;42.620;25.394;2024-03-06T03:43:35;11.60;;;7.20;;
52590;SDS011;38483;42.620;25.394;2024-03-06T03:46:03;11.53;;;7.40;;
52590;SDS011;38483;42.620;25.394;2024-03-06T03:48:31;12.40;;;7.80;;
52590;SDS011;38483;42.620;25.394;2024-03-06T03:50:58;10.60;;;7.40;;
52590;SDS011;38483;42.620;25.394;2024-03-06T03:53:25;11.63;;;8.67;;
52590;SDS011;38483;42.620;25.394;2024-03-06T03:55:52;12.87;;;7.40;;
52590;SDS011;38483;42.620;25.394;2024-03-06T03:58:19;13.80;;;8.37;;
52590;SDS011;38483;42.620;25.394;2024-03-06T04:00:46;9.93;;;7.20;;
52590;SDS011;38483;42.620;25.394;2024-03-06T04:03:13;10.10;;;7.00;;
52590;SDS011;38483;42.620;25.394;2024-03-06T04:05:40;21.70;;;7.40;;
52590;SDS011;38483;42.620;25.394;2024-03-06T04:08:07;13.90;;;7.90;;
52590;SDS011;38483;42.620;25.394;2024-03-06T04:10:34;17.23;;;8.43;;
52590;SDS011;38483;42.620;25.394;2024-03-06T04:13:03;13.57;;;8.67;;
52590;SDS011;38483;42.620;25.394;2024-03-06T04:15:30;16.60;;;9.07;;
52590;SDS011;38483;42.620;25.394;2024-03-06T04:17:57;13.67;;;9.20;;
52590;SDS011;38483;42.620;25.394;2024-03-06T04:20:24;12.57;;;8.13;;
52590;SDS011;38483;42.620;25.394;2024-03-06T04:22:51;18.10;;;11.03;;
52590;SDS011;38483;42.620;25.394;2024-03-06T04:25:18;14.90;;;11.10;;
52590;SDS011;38483;42.620;25.394;2024-03-06T04:27:46;18.57;;;11.70;;
52590;SDS011;38483;42.620;25.394;2024-03-06T04:30:13;16.23;;;10.70;;
52590;SDS011;38483;42.620;25.394;2024-03-06T04:32:40;19.20;;;9.73;;
52590;SDS011;38483;42.620;25.394;2024-03-06T04:35:07;13.17;;;9.40;;
52590;SDS011;38483;42.620;25.394;2024-03-06T04:37:36;13.97;;;8.43;;
52590;SDS011;38483;42.620;25.394;2024-03-06T04:40:03;13.67;;;8.57;;
52590;SDS011;38483;42.620;25.394;2024-03-06T04:42:34;12.47;;;7.93;;
52590;SDS011;38483;42.620;25.394;2024-03-06T04:45:14;13.97;;;9.27;;
52590;SDS011;38483;42.620;25.394;2024-03-06T04:47:43;12.70;;;8.23;;
52590;SDS011;38483;42.620;25.394;2024-03-06T04:50:11;14.07;;;8.70;;
52590;SDS011;38483;42.620;25.394;2024-03-06T04:52:39;14.17;;;9.57;;
52590;SDS011;38483;42.620;25.394;2024-03-06T04:55:06;13.57;;;8.97;;
52590;SDS011;38483;42.620;25.394;2024-03-06T04:57:39;14.37;;;9.90;;
52590;SDS011;38483;42.620;25.394;2024-03-06T05:00:10;15.17;;;10.07;;
52590;SDS011;38483;42.620;25.394;2024-03-06T05:02:38;13.87;;;9.13;;
52590;SDS011;38483;42.620;25.394;2024-03-06T05:05:25;15.93;;;10.80;;
52590;SDS011;38483;42.620;25.394;2024-03-06T05:08:09;16.77;;;12.23;;
52590;SDS011;38483;42.620;25.394;2024-03-06T05:10:54;18.37;;;12.30;;
52590;SDS011;38483;42.620;25.394;2024-03-06T05:13:38;14.57;;;11.37;;
52590;SDS011;38483;42.620;25.394;2024-03-06T05:16:23;18.23;;;11.73;;
52590;SDS011;38483;42.620;25.394;2024-03-06T05:19:08;14.37;;;10.63;;
52590;SDS011;38483;42.620;25.394;2024-03-06T05:21:54;16.97;;;11.47;;
52590;SDS011;38483;42.620;25.394;2024-03-06T05:24:39;17.63;;;12.07;;
52590;SDS011;38483;42.620;25.394;2024-03-06T05:27:24;16.40;;;12.20;;
52590;SDS011;38483;42.620;25.394;2024-03-06T05:30:10;23.47;;;14.03;;
52590;SDS011;38483;42.620;25.394;2024-03-06T05:32:54;20.73;;;13.23;;
52590;SDS011;38483;42.620;25.394;2024-03-06T05:35:40;22.23;;;15.40;;
52590;SDS011;38483;42.620;25.394;2024-03-06T05:38:25;31.83;;;18.63;;
52590;SDS011;38483;42.620;25.394;2024-03-06T05:41:09;28.57;;;16.97;;
52590;SDS011;38483;42.620;25.394;2024-03-06T05:43:53;26.73;;;15.63;;
52590;SDS011;38483;42.620;25.394;2024-03-06T05:46:37;28.17;;;16.97;;
52590;SDS011;38483;42.620;25.394;2024-03-06T05:49:22;17.80;;;13.27;;
52590;SDS011;38483;42.620;25.394;2024-03-06T05:52:06;20.10;;;13.27;;
52590;SDS011;38483;42.620;25.394;2024-03-06T05:54:50;23.07;;;15.37;;
52590;SDS011;38483;42.620;25.394;2024-03-06T05:57:34;20.47;;;14.23;;
52590;SDS011;38483;42.620;25.394;2024-03-06T06:00:19;20.70;;;14.30;;
52590;SDS011;38483;42.620;25.394;2024-03-06T06:02:48;19.37;;;13.83;;
52590;SDS011;38483;42.620;25.394;2024-03-06T06:05:15;21.97;;;13.00;;
52590;SDS011;38483;42.620;25.394;2024-03-06T06:07:50;13.83;;;8.00;;
52590;SDS011;38483;42.620;25.394;2024-03-06T06:10:18;10.97;;;7.90;;
52590;SDS011;38483;42.620;25.394;2024-03-06T06:12:48;13.17;;;9.20;;
52590;SDS011;38483;42.620;25.394;2024-03-06T06:15:16;11.87;;;8.80;;
52590;SDS011;38483;42.620;25.394;2024-03-06T06:17:43;15.47;;;10.77;;
52590;SDS011;38483;42.620;25.394;2024-03-06T06:20:13;17.80;;;11.13;;
52590;SDS011;38483;42.620;25.394;2024-03-06T06:22:45;15.47;;;11.27;;
52590;SDS011;38483;42.620;25.394;2024-03-06T06:25:12;19.20;;;11.27;;
52590;SDS011;38483;42.620;25.394;2024-03-06T06:27:40;19.97;;;13.20;;
52590;SDS011;38483;42.620;25.394;2024-03-06T06:30:07;17.87;;;12.07;;
52590;SDS011;38483;42.620;25.394;2024-03-06T06:32:41;21.37;;;12.83;;
52590;SDS011;38483;42.620;25.394;2024-03-06T06:35:10;26.50;;;15.57;;
52590;SDS011;38483;42.620;25.394;2024-03-06T06:37:38;18.63;;;13.17;;
52590;SDS011;38483;42.620;25.394;2024-03-06T06:40:06;21.03;;;13.57;;
52590;SDS011;38483;42.620;25.394;2024-03-06T06:42:35;20.70;;;13.50;;
52590;SDS011;38483;42.620;25.394;2024-03-06T06:45:03;17.27;;;12.13;;
52590;SDS011;38483;42.620;25.394;2024-03-06T06:47:30;23.17;;;12.40;;
52590;SDS011;38483;42.620;25.394;2024-03-06T06:49:58;19.00;;;12.87;;
52590;SDS011;38483;42.620;25.394;2024-03-06T06:52:25;21.87;;;14.27;;
52590;SDS011;38483;42.620;25.394;2024-03-06T06:54:54;21.83;;;14.20;;
52590;SDS011;38483;42.620;25.394;2024-03-06T06:57:22;20.57;;;15.57;;
52590;SDS011;38483;42.620;25.394;2024-03-06T06:59:49;20.53;;;12.93;;
52590;SDS011;38483;42.620;25.394;2024-03-06T07:02:17;19.23;;;12.80;;
52590;SDS011;38483;42.620;25.394;2024-03-06T07:04:44;20.40;;;13.27;;
52590;SDS011;38483;42.620;25.394;2024-03-06T07:07:11;17.20;;;12.47;;
52590;SDS011;38483;42.620;25.394;2024-03-06T07:09:38;19.27;;;13.07;;
52590;SDS011;38483;42.620;25.394;2024-03-06T07:12:05;15.67;;;11.70;;
52590;SDS011;38483;42.620;25.394;2024-03-06T07:14:34;17.03;;;11.13;;
52590;SDS011;38483;42.620;25.394;2024-03-06T07:17:01;17.27;;;10.17;;
52590;SDS011;38483;42.620;25.394;2024-03-06T07:19:28;15.13;;;10.60;;
52590;SDS011;38483;42.620;25.394;2024-03-06T07:21:56;12.93;;;9.57;;
52590;SDS011;38483;42.620;25.394;2024-03-06T07:24:23;12.43;;;8.87;;
52590;SDS011;38483;42.620;25.394;2024-03-06T07:26:50;15.33;;;8.90;;
52590;SDS011;38483;42.620;25.394;2024-03-06T07:29:17;16.17;;;10.60;;
52590;SDS011;38483;42.620;25.394;2024-03-06T07:31:45;15.77;;;10.50;;
52590;SDS011;38483;42.620;25.394;2024-03-06T07:34:12;14.23;;;10.13;;
52590;SDS011;38483;42.620;25.394;2024-03-06T07:36:39;16.47;;;11.63;;
52590;SDS011;38483;42.620;25.394;2024-03-06T07:39:07;18.67;;;12.93;;
52590;SDS011;38483;42.620;25.394;2024-03-06T07:41:34;19.17;;;11.67;;
52590;SDS011;38483;42.620;25.394;2024-03-06T07:44:02;16.60;;;11.23;;
52590;SDS011;38483;42.620;25.394;2024-03-06T07:46:29;16.90;;;10.40;;
52590;SDS011;38483;42.620;25.394;2024-03-06T07:48:56;13.33;;;8.27;;
52590;SDS011;38483;42.620;25.394;2024-03-06T07:51:24;15.30;;;8.17;;
52590;SDS011;38483;42.620;25.394;2024-03-06T07:53:51;9.20;;;6.87;;
52590;SDS011;38483;42.620;25.394;2024-03-06T07:56:19;10.93;;;6.90;;
52590;SDS011;38483;42.620;25.394;2024-03-06T07:58:46;13.63;;;6.67;;
52590;SDS011;38483;42.620;25.394;2024-03-06T08:01:13;13.57;;;8.17;;
52590;SDS011;38483;42.620;25.394;2024-03-06T08:03:40;15.60;;;9.47;;
52590;SDS011;38483;42.620;25.394;2024-03-06T08:06:09;15.63;;;6.87;;
52590;SDS011;38483;42.620;25.394;2024-03-06T08:08:36;13.73;;;7.80;;
52590;SDS011;38483;42.620;25.394;2024-03-06T08:11:06;16.73;;;8.13;;
52590;SDS011;38483;42.620;25.394;2024-03-06T08:13:33;14.43;;;7.50;;
52590;SDS011;38483;42.620;25.394;2024-03-06T08:16:00;16.33;;;9.30;;
52590;SDS011;38483;42.620;25.394;2024-03-06T08:18:27;16.80;;;10.90;;
52590;SDS011;38483;42.620;25.394;2024-03-06T08:20:55;14.27;;;10.23;;
52590;SDS011;38483;42.620;25.394;2024-03-06T08:23:22;15.10;;;9.43;;
52590;SDS011;38483;42.620;25.394;2024-03-06T08:25:50;12.70;;;9.13;;
52590;SDS011;38483;42.620;25.394;2024-03-06T08:28:19;12.13;;;8.90;;
52590;SDS011;38483;42.620;25.394;2024-03-06T08:30:46;14.27;;;8.40;;
52590;SDS011;38483;42.620;25.394;2024-03-06T08:33:13;12.97;;;8.63;;
52590;SDS011;38483;42.620;25.394;2024-03-06T08:35:40;13.47;;;8.73;;
52590;SDS011;38483;42.620;25.394;2024-03-06T08:38:08;14.40;;;8.90;;
52590;SDS011;38483;42.620;25.394;2024-03-06T08:40:35;20.87;;;9.90;;
52590;SDS011;38483;42.620;25.394;2024-03-06T08:43:04;22.67;;;9.90;;
52590;SDS011;38483;42.620;25.394;2024-03-06T08:45:31;18.50;;;11.00;;
52590;SDS011;38483;42.620;25.394;2024-03-06T08:47:58;17.60;;;9.87;;
52590;SDS011;38483;42.620;25.394;2024-03-06T08:50:25;17.93;;;10.30;;
52590;SDS011;38483;42.620;25.394;2024-03-06T08:52:53;19.47;;;11.77;;
52590;SDS011;38483;42.620;25.394;2024-03-06T08:55:20;13.30;;;8.83;;
52590;SDS011;38483;42.620;25.394;2024-03-06T08:57:47;15.57;;;8.53;;
52590;SDS011;38483;42.620;25.394;2024-03-06T09:00:14;14.53;;;8.43;;
52590;SDS011;38483;42.620;25.394;2024-03-06T09:02:42;13.53;;;8.80;;
52590;SDS011;38483;42.620;25.394;2024-03-06T09:05:10;12.73;;;8.50;;
52590;SDS011;38483;42.620;25.394;2024-03-06T09:07:40;13.87;;;8.97;;
52590;SDS011;38483;42.620;25.394;2024-03-06T09:10:10;11.13;;;7.87;;
52590;SDS011;38483;42.620;25.394;2024-03-06T09:12:37;14.83;;;8.80;;
52590;SDS011;38483;42.620;25.394;2024-03-06T09:15:05;19.27;;;12.40;;
52590;SDS011;38483;42.620;25.394;2024-03-06T09:17:36;17.00;;;8.77;;
52590;SDS011;38483;42.620;25.394;2024-03-06T09:20:05;13.33;;;9.47;;
52590;SDS011;38483;42.620;25.394;2024-03-06T09:22:41;18.57;;;10.37;;
52590;SDS011;38483;42.620;25.394;2024-03-06T09:25:09;16.97;;;9.00;;
52590;SDS011;38483;42.620;25.394;2024-03-06T09:27:37;12.57;;;6.60;;
52590;SDS011;38483;42.620;25.394;2024-03-06T09:30:04;14.87;;;8.03;;
52590;SDS011;38483;42.620;25.394;2024-03-06T09:32:32;9.90;;;6.73;;
52590;SDS011;38483;42.620;25.394;2024-03-06T09:34:59;10.40;;;6.70;;
52590;SDS011;38483;42.620;25.394;2024-03-06T09:37:29;16.23;;;6.43;;
52590;SDS011;38483;42.620;25.394;2024-03-06T09:39:57;10.30;;;6.23;;
52590;SDS011;38483;42.620;25.394;2024-03-06T09:42:24;12.03;;;6.07;;
52590;SDS011;38483;42.620;25.394;2024-03-06T09:44:52;10.03;;;7.03;;
52590;SDS011;38483;42.620;25.394;2024-03-06T09:47:21;14.50;;;9.20;;
52590;SDS011;38483;42.620;25.394;2024-03-06T09:49:51;8.83;;;6.23;;
52590;SDS011;38483;42.620;25.394;2024-03-06T09:52:23;23.93;;;8.40;;
52590;SDS011;38483;42.620;25.394;2024-03-06T09:54:54;9.03;;;5.17;;
52590;SDS011;38483;42.620;25.394;2024-03-06T09:57:22;10.80;;;6.63;;
52590;SDS011;38483;42.620;25.394;2024-03-06T09:59:49;16.00;;;7.60;;
52590;SDS011;38483;42.620;25.394;2024-03-06T10:02:39;20.20;;;8.33;;
52590;SDS011;38483;42.620;25.394;2024-03-06T10:05:05;16.27;;;9.37;;
52590;SDS011;38483;42.620;25.394;2024-03-06T10:07:47;7.60;;;5.87;;
52590;SDS011;38483;42.620;25.394;2024-03-06T10:10:14;8.93;;;5.80;;
52590;SDS011;38483;42.620;25.394;2024-03-06T10:12:44;10.60;;;6.13;;
52590;SDS011;38483;42.620;25.394;2024-03-06T10:15:12;7.90;;;5.73;;
52590;SDS011;38483;42.620;25.394;2024-03-06T10:17:39;12.57;;;7.33;;
52590;SDS011;38483;42.620;25.394;2024-03-06T10:20:27;7.07;;;5.70;;
52590;SDS011;38483;42.620;25.394;2024-03-06T10:22:55;8.37;;;5.53;;
52590;SDS011;38483;42.620;25.394;2024-03-06T10:25:25;10.77;;;5.90;;
52590;SDS011;38483;42.620;25.394;2024-03-06T10:30:34;9.67;;;6.00;;
52590;SDS011;38483;42.620;25.394;2024-03-06T10:33:03;7.93;;;5.10;;
52590;SDS011;38483;42.620;25.394;2024-03-06T10:35:32;8.40;;;4.93;;
52590;SDS011;38483;42.620;25.394;2024-03-06T10:38:00;13.17;;;5.97;;
52590;SDS011;38483;42.620;25.394;2024-03-06T10:40:33;9.80;;;6.13;;
52590;SDS011;38483;42.620;25.394;2024-03-06T10:43:02;8.10;;;5.30;;
52590;SDS011;38483;42.620;25.394;2024-03-06T10:45:36;13.90;;;6.47;;
52590;SDS011;38483;42.620;25.394;2024-03-06T10:48:10;11.73;;;6.27;;
52590;SDS011;38483;42.620;25.394;2024-03-06T10:50:40;9.53;;;6.07;;
52590;SDS011;38483;42.620;25.394;2024-03-06T10:53:14;11.53;;;6.73;;
52590;SDS011;38483;42.620;25.394;2024-03-06T10:55:48;6.83;;;5.40;;
52590;SDS011;38483;42.620;25.394;2024-03-06T10:58:17;12.60;;;5.93;;
52590;SDS011;38483;42.620;25.394;2024-03-06T11:00:47;10.30;;;5.47;;
52590;SDS011;38483;42.620;25.394;2024-03-06T11:03:15;11.77;;;5.37;;
52590;SDS011;38483;42.620;25.394;2024-03-06T11:05:43;7.70;;;5.40;;
52590;SDS011;38483;42.620;25.394;2024-03-06T11:08:14;9.53;;;6.53;;
52590;SDS011;38483;42.620;25.394;2024-03-06T11:10:43;9.53;;;6.00;;
52590;SDS011;38483;42.620;25.394;2024-03-06T11:15:47;10.20;;;6.33;;
52590;SDS011;38483;42.620;25.394;2024-03-06T11:23:28;10.07;;;5.77;;
52590;SDS011;38483;42.620;25.394;2024-03-06T11:25:57;8.50;;;6.03;;
52590;SDS011;38483;42.620;25.394;2024-03-06T11:28:32;9.60;;;5.03;;
52590;SDS011;38483;42.620;25.394;2024-03-06T11:31:04;12.60;;;6.67;;
52590;SDS011;38483;42.620;25.394;2024-03-06T11:33:37;7.93;;;5.37;;
52590;SDS011;38483;42.620;25.394;2024-03-06T11:38:50;8.43;;;5.77;;
52590;SDS011;38483;42.620;25.394;2024-03-06T11:41:24;8.20;;;5.40;;
52590;SDS011;38483;42.620;25.394;2024-03-06T11:43:53;10.17;;;5.23;;
52590;SDS011;38483;42.620;25.394;2024-03-06T11:46:22;9.83;;;4.50;;
52590;SDS011;38483;42.620;25.394;2024-03-06T11:49:14;15.17;;;5.70;;
52590;SDS011;38483;42.620;25.394;2024-03-06T11:51:44;8.17;;;5.20;;
52590;SDS011;38483;42.620;25.394;2024-03-06T11:54:11;8.27;;;4.80;;
52590;SDS011;38483;42.620;25.394;2024-03-06T11:56:40;7.27;;;4.67;;
52590;SDS011;38483;42.620;25.394;2024-03-06T11:59:07;7.83;;;4.23;;
52590;SDS011;38483;42.620;25.394;2024-03-06T12:01:37;8.80;;;4.37;;
52590;SDS011;38483;42.620;25.394;2024-03-06T12:04:04;8.90;;;4.53;;
52590;SDS011;38483;42.620;25.394;2024-03-06T12:06:34;8.13;;;5.00;;
52590;SDS011;38483;42.620;25.394;2024-03-06T12:09:02;10.50;;;5.07;;
52590;SDS011;38483;42.620;25.394;2024-03-06T12:11:30;8.83;;;4.63;;
52590;SDS011;38483;42.620;25.394;2024-03-06T12:14:03;5.93;;;4.07;;
52590;SDS011;38483;42.620;25.394;2024-03-06T12:16:30;5.60;;;4.20;;
52590;SDS011;38483;42.620;25.394;2024-03-06T12:18:58;5.87;;;4.17;;
52590;SDS011;38483;42.620;25.394;2024-03-06T12:21:30;6.57;;;4.20;;
52590;SDS011;38483;42.620;25.394;2024-03-06T12:24:02;9.77;;;4.77;;
52590;SDS011;38483;42.620;25.394;2024-03-06T12:26:32;6.33;;;4.37;;
52590;SDS011;38483;42.620;25.394;2024-03-06T12:31:33;9.63;;;4.30;;
52590;SDS011;38483;42.620;25.394;2024-03-06T12:34:02;8.97;;;4.50;;
52590;SDS011;38483;42.620;25.394;2024-03-06T12:36:31;10.80;;;5.27;;
52590;SDS011;38483;42.620;25.394;2024-03-06T12:38:58;7.00;;;4.93;;
52590;SDS011;38483;42.620;25.394;2024-03-06T12:41:26;6.67;;;4.00;;
52590;SDS011;38483;42.620;25.394;2024-03-06T12:43:54;5.80;;;3.90;;
52590;SDS011;38483;42.620;25.394;2024-03-06T12:46:23;7.17;;;4.70;;
52590;SDS011;38483;42.620;25.394;2024-03-06T12:48:50;8.77;;;5.63;;
52590;SDS011;38483;42.620;25.394;2024-03-06T12:51:18;8.53;;;4.40;;
52590;SDS011;38483;42.620;25.394;2024-03-06T12:53:45;6.50;;;4.57;;
52590;SDS011;38483;42.620;25.394;2024-03-06T12:56:12;7.00;;;4.60;;
52590;SDS011;38483;42.620;25.394;2024-03-06T12:58:39;8.97;;;4.60;;
52590;SDS011;38483;42.620;25.394;2024-03-06T13:01:06;6.00;;;3.80;;
52590;SDS011;38483;42.620;25.394;2024-03-06T13:03:33;7.60;;;4.53;;
52590;SDS011;38483;42.620;25.394;2024-03-06T13:06:00;6.57;;;4.63;;
52590;SDS011;38483;42.620;25.394;2024-03-06T13:08:28;6.20;;;3.90;;
52590;SDS011;38483;42.620;25.394;2024-03-06T13:10:55;6.07;;;4.20;;
52590;SDS011;38483;42.620;25.394;2024-03-06T13:13:23;5.50;;;4.70;;
52590;SDS011;38483;42.620;25.394;2024-03-06T13:15:55;8.47;;;4.93;;
52590;SDS011;38483;42.620;25.394;2024-03-06T13:18:23;10.20;;;5.20;;
52590;SDS011;38483;42.620;25.394;2024-03-06T13:20:50;9.43;;;6.10;;
52590;SDS011;38483;42.620;25.394;2024-03-06T13:23:17;10.00;;;6.10;;
52590;SDS011;38483;42.620;25.394;2024-03-06T13:25:44;10.27;;;6.10;;
52590;SDS011;38483;42.620;25.394;2024-03-06T13:28:12;10.17;;;6.50;;
52590;SDS011;38483;42.620;25.394;2024-03-06T13:30:39;8.67;;;6.93;;
52590;SDS011;38483;42.620;25.394;2024-03-06T13:33:06;12.73;;;7.20;;
52590;SDS011;38483;42.620;25.394;2024-03-06T13:35:34;8.10;;;6.40;;
52590;SDS011;38483;42.620;25.394;2024-03-06T13:38:01;10.40;;;5.83;;
52590;SDS011;38483;42.620;25.394;2024-03-06T13:40:30;11.70;;;6.70;;
52590;SDS011;38483;42.620;25.394;2024-03-06T13:42:57;8.17;;;5.77;;
52590;SDS011;38483;42.620;25.394;2024-03-06T13:45:24;10.43;;;6.47;;
52590;SDS011;38483;42.620;25.394;2024-03-06T13:47:51;11.10;;;6.67;;
52590;SDS011;38483;42.620;25.394;2024-03-06T13:50:18;9.60;;;6.37;;
52590;SDS011;38483;42.620;25.394;2024-03-06T13:52:45;10.00;;;6.27;;
52590;SDS011;38483;42.620;25.394;2024-03-06T13:55:12;9.83;;;6.90;;
52590;SDS011;38483;42.620;25.394;2024-03-06T13:57:39;12.67;;;6.13;;
52590;SDS011;38483;42.620;25.394;2024-03-06T14:00:08;8.50;;;6.27;;
52590;SDS011;38483;42.620;25.394;2024-03-06T14:02:39;10.80;;;6.10;;
52590;SDS011;38483;42.620;25.394;2024-03-06T14:05:07;12.90;;;7.13;;
52590;SDS011;38483;42.620;25.394;2024-03-06T14:07:34;15.43;;;7.97;;
52590;SDS011;38483;42.620;25.394;2024-03-06T14:10:04;11.37;;;7.73;;
52590;SDS011;38483;42.620;25.394;2024-03-06T14:12:32;14.40;;;8.70;;
52590;SDS011;38483;42.620;25.394;2024-03-06T14:14:59;12.37;;;8.80;;
52590;SDS011;38483;42.620;25.394;2024-03-06T14:17:26;15.37;;;8.60;;
52590;SDS011;38483;42.620;25.394;2024-03-06T14:19:53;11.13;;;7.53;;
52590;SDS011;38483;42.620;25.394;2024-03-06T14:22:20;12.27;;;7.73;;
52590;SDS011;38483;42.620;25.394;2024-03-06T14:24:48;11.60;;;7.80;;
52590;SDS011;38483;42.620;25.394;2024-03-06T14:27:15;11.03;;;7.60;;
52590;SDS011;38483;42.620;25.394;2024-03-06T14:29:43;12.00;;;8.10;;
52590;SDS011;38483;42.620;25.394;2024-03-06T14:32:11;11.07;;;8.20;;
52590;SDS011;38483;42.620;25.394;2024-03-06T14:34:38;11.50;;;7.37;;
52590;SDS011;38483;42.620;25.394;2024-03-06T14:37:05;13.10;;;7.27;;
52590;SDS011;38483;42.620;25.394;2024-03-06T14:39:32;9.53;;;6.80;;
52590;SDS011;38483;42.620;25.394;2024-03-06T14:42:53;12.97;;;6.93;;
52590;SDS011;38483;42.620;25.394;2024-03-06T14:46:18;12.17;;;7.70;;
52590;SDS011;38483;42.620;25.394;2024-03-06T14:49:42;12.47;;;6.73;;
52590;SDS011;38483;42.620;25.394;2024-03-06T14:53:03;13.17;;;7.43;;
52590;SDS011;38483;42.620;25.394;2024-03-06T14:56:24;15.27;;;7.83;;
52590;SDS011;38483;42.620;25.394;2024-03-06T14:59:46;13.50;;;7.27;;
52590;SDS011;38483;42.620;25.394;2024-03-06T15:03:07;11.33;;;7.90;;
52590;SDS011;38483;42.620;25.394;2024-03-06T15:05:34;11.40;;;7.60;;
52590;SDS011;38483;42.620;25.394;2024-03-06T15:08:02;12.50;;;7.93;;
52590;SDS011;38483;42.620;25.394;2024-03-06T15:10:31;13.70;;;7.77;;
52590;SDS011;38483;42.620;25.394;2024-03-06T15:12:58;18.57;;;8.27;;
52590;SDS011;38483;42.620;25.394;2024-03-06T15:15:25;14.90;;;8.20;;
52590;SDS011;38483;42.620;25.394;2024-03-06T15:17:52;11.83;;;7.70;;